Shoukeimaruno.3 — JI3587 — position and weather

sailwx.info

Track history (hours):
 
Tides and Currents Weather Stations Pressure Air Temp Water Temp Dewpoint Dewpoint Depression Visibility Wind Speed Wind Dir Waves Ship Positions

Shoukeimaruno.3

Last reported at 2017-Jul-16 13:13 UTC. Time now 2017-Jul-20 14:39 UTC.
Position N 35°54' E 140°58'.

Length 77 m; draft 4.2 m.

Type: Cargo ship. MMSI: 431300325.

Date/timePositionNaut miles runAvg speedWind from/ knotsBaromVisibWave heightAir tempDewpointWater temp
2017-Jul-16 13:13N 35°54' E 140°58'8411.6
2017-Jul-16 05:58N 34°55' E 139°46'612.3
2017-Jul-16 05:30N 35°01' E 139°44'612.1
2017-Jul-16 05:00N 35°07' E 139°45'612.6
2017-Jul-16 04:30N 35°13' E 139°46'612.7
2017-Jul-16 04:00N 35°19' E 139°43'612.2
2017-Jul-16 03:30N 35°24' E 139°39'2 3.2
2017-Jul-16 03:00N 35°24' E 139°37'0 0.0
2017-Jul-16 02:30N 35°24' E 139°37'0 0.0
2017-Jul-16 02:00N 35°24' E 139°37'0 0.0
2017-Jul-16 01:30N 35°24' E 139°37'0 0.0
2017-Jul-16 01:00N 35°24' E 139°37'0 0.0
2017-Jul-16 00:30N 35°24' E 139°37'0 0.0
2017-Jul-16 00:00N 35°24' E 139°37'0 0.0
2017-Jul-15 23:30N 35°24' E 139°37'0 0.0
2017-Jul-15 23:00N 35°24' E 139°37'2 3.9
2017-Jul-15 22:27N 35°23' E 139°40'0 0.0
2017-Jul-15 22:00N 35°23' E 139°40'0 0.1
2017-Jul-15 21:30N 35°23' E 139°40'0 0.0
2017-Jul-15 21:00N 35°23' E 139°40'0 0.0
2017-Jul-15 20:30N 35°23' E 139°40'0 0.0
2017-Jul-15 20:00N 35°23' E 139°40'0 0.0
2017-Jul-15 19:30N 35°23' E 139°40'0 0.0
2017-Jul-15 19:00N 35°23' E 139°40'0 0.1
2017-Jul-15 18:30N 35°23' E 139°40'0 0.1
2017-Jul-15 18:00N 35°23' E 139°40'0 0.1
2017-Jul-15 17:30N 35°23' E 139°40'2 4.8
2017-Jul-15 17:00N 35°22' E 139°42'612.1
2017-Jul-15 16:30N 35°16' E 139°46'611.6
2017-Jul-15 16:00N 35°11' E 139°46'612.9
2017-Jul-15 15:31N 35°05' E 139°43'713.8
2017-Jul-15 15:00N 35°01' E 139°36'1413.7
2017-Jul-15 14:00N 34°54' E 139°21'2 0.1
2017-Jul-14 15:12N 34°55' E 139°19'211.4
2017-Jul-14 14:59N 34°57' E 139°22'611.6
2017-Jul-14 14:30N 34°59' E 139°27'611.7
2017-Jul-14 14:00N 35°02' E 139°34'611.5
2017-Jul-14 13:31N 35°06' E 139°39'510.8
2017-Jul-14 13:01N 35°09' E 139°44'611.6
2017-Jul-14 12:31N 35°15' E 139°46'611.7
2017-Jul-14 12:01N 35°20' E 139°42'5 9.3
2017-Jul-14 11:31N 35°24' E 139°40'0 0.0
2017-Jul-14 10:56N 35°24' E 139°40'0 0.0
2017-Jul-14 10:29N 35°24' E 139°40'0 0.0
2017-Jul-14 09:59N 35°24' E 139°40'0 0.0
2017-Jul-14 09:29N 35°24' E 139°40'0 0.0
2017-Jul-14 08:59N 35°24' E 139°40'0 0.0
2017-Jul-14 08:29N 35°24' E 139°40'0 0.0
2017-Jul-14 08:00N 35°24' E 139°40'1 1.5
2017-Jul-14 07:28N 35°23' E 139°40'0 0.1
2017-Jul-14 06:58N 35°23' E 139°40'0 0.0
2017-Jul-14 06:28N 35°23' E 139°40'0 0.0
2017-Jul-14 05:58N 35°23' E 139°40'0 0.0
2017-Jul-14 05:31N 35°23' E 139°40'0 0.0
2017-Jul-14 05:00N 35°23' E 139°40'0 0.0
2017-Jul-14 04:31N 35°23' E 139°40'0 0.0
2017-Jul-14 04:01N 35°23' E 139°40'0 0.0
2017-Jul-14 03:31N 35°23' E 139°40'0 0.0
2017-Jul-14 03:01N 35°23' E 139°40'0 0.0
2017-Jul-14 02:31N 35°23' E 139°40'0 0.0
2017-Jul-14 02:01N 35°23' E 139°40'0 0.0
2017-Jul-14 01:31N 35°23' E 139°40'0 0.0
2017-Jul-14 01:00N 35°23' E 139°40'0 0.0
2017-Jul-14 00:30N 35°23' E 139°40'0 0.0
2017-Jul-14 00:01N 35°23' E 139°40'0 0.0
2017-Jul-13 23:30N 35°23' E 139°40'0 0.0
2017-Jul-13 23:00N 35°23' E 139°40'0 0.0
2017-Jul-13 22:30N 35°23' E 139°40'0 0.0
2017-Jul-13 22:01N 35°23' E 139°40'0 0.0
2017-Jul-13 21:30N 35°23' E 139°40'0 0.0
2017-Jul-13 21:01N 35°23' E 139°40'2 3.8
2017-Jul-13 20:30N 35°24' E 139°42'4 8.8
2017-Jul-13 20:00N 35°26' E 139°47'3 6.3
2017-Jul-13 19:30N 35°24' E 139°50'2 4.7
2017-Jul-13 19:00N 35°22' E 139°52'0 0.1
2017-Jul-13 10:30N 35°22' E 139°53'0 0.0
2017-Jul-13 06:57N 35°22' E 139°53'0 0.1
2017-Jul-13 06:25N 35°22' E 139°53'2 4.0
2017-Jul-13 06:00N 35°23' E 139°51'1 2.8
2017-Jul-13 05:30N 35°24' E 139°50'0 0.0
2017-Jul-13 04:54N 35°24' E 139°50'0 0.0
2017-Jul-13 04:30N 35°24' E 139°50'0 0.0
2017-Jul-13 04:00N 35°24' E 139°50'0 0.0
2017-Jul-13 03:22N 35°24' E 139°50'3 7.2
2017-Jul-13 03:00N 35°25' E 139°48'4 8.0
2017-Jul-13 02:28N 35°27' E 139°43'0 0.0
2017-Jul-13 01:58N 35°27' E 139°43'0 0.0
2017-Jul-13 01:28N 35°27' E 139°43'0 0.0
2017-Jul-13 00:58N 35°27' E 139°43'0 0.0
2017-Jul-13 00:28N 35°27' E 139°43'0 0.0
2017-Jul-12 23:58N 35°27' E 139°43'0 0.1
2017-Jul-12 23:29N 35°27' E 139°43'3 7.0
2017-Jul-12 23:00N 35°23' E 139°43'611.7
2017-Jul-12 22:30N 35°18' E 139°45'611.3
2017-Jul-12 22:00N 35°12' E 139°47'612.5
2017-Jul-12 21:30N 35°06' E 139°45'612.4
2017-Jul-12 21:00N 34°60' E 139°43'  
Track history (hours):
 
Tides and Currents Weather Stations Pressure Air Temp Water Temp Dewpoint Dewpoint Depression Visibility Wind Speed Wind Dir Waves Ship Positions

Shoukeimaruno.3

Last reported at 2017-Jul-16 13:13 UTC. Time now 2017-Jul-20 14:39 UTC.
Position N 35°54' E 140°58'.

Length 77 m; draft 4.2 m.

Type: Cargo ship. MMSI: 431300325.

Date/timePositionNaut miles runAvg speedWind from/ knotsBaromVisibWave heightAir tempDewpointWater temp
2017-Jul-16 13:13N 35°54' E 140°58'8411.6
2017-Jul-16 05:58N 34°55' E 139°46'612.3
2017-Jul-16 05:30N 35°01' E 139°44'612.1
2017-Jul-16 05:00N 35°07' E 139°45'612.6
2017-Jul-16 04:30N 35°13' E 139°46'612.7
2017-Jul-16 04:00N 35°19' E 139°43'612.2
2017-Jul-16 03:30N 35°24' E 139°39'2 3.2
2017-Jul-16 03:00N 35°24' E 139°37'0 0.0
2017-Jul-16 02:30N 35°24' E 139°37'0 0.0
2017-Jul-16 02:00N 35°24' E 139°37'0 0.0
2017-Jul-16 01:30N 35°24' E 139°37'0 0.0
2017-Jul-16 01:00N 35°24' E 139°37'0 0.0
2017-Jul-16 00:30N 35°24' E 139°37'0 0.0
2017-Jul-16 00:00N 35°24' E 139°37'0 0.0
2017-Jul-15 23:30N 35°24' E 139°37'0 0.0
2017-Jul-15 23:00N 35°24' E 139°37'2 3.9
2017-Jul-15 22:27N 35°23' E 139°40'0 0.0
2017-Jul-15 22:00N 35°23' E 139°40'0 0.1
2017-Jul-15 21:30N 35°23' E 139°40'0 0.0
2017-Jul-15 21:00N 35°23' E 139°40'0 0.0
2017-Jul-15 20:30N 35°23' E 139°40'0 0.0
2017-Jul-15 20:00N 35°23' E 139°40'0 0.0
2017-Jul-15 19:30N 35°23' E 139°40'0 0.0
2017-Jul-15 19:00N 35°23' E 139°40'0 0.1
2017-Jul-15 18:30N 35°23' E 139°40'0 0.1
2017-Jul-15 18:00N 35°23' E 139°40'0 0.1
2017-Jul-15 17:30N 35°23' E 139°40'2 4.8
2017-Jul-15 17:00N 35°22' E 139°42'612.1
2017-Jul-15 16:30N 35°16' E 139°46'611.6
2017-Jul-15 16:00N 35°11' E 139°46'612.9
2017-Jul-15 15:31N 35°05' E 139°43'713.8
2017-Jul-15 15:00N 35°01' E 139°36'1413.7
2017-Jul-15 14:00N 34°54' E 139°21'2 0.1
2017-Jul-14 15:12N 34°55' E 139°19'211.4
2017-Jul-14 14:59N 34°57' E 139°22'611.6
2017-Jul-14 14:30N 34°59' E 139°27'611.7
2017-Jul-14 14:00N 35°02' E 139°34'611.5
2017-Jul-14 13:31N 35°06' E 139°39'510.8
2017-Jul-14 13:01N 35°09' E 139°44'611.6
2017-Jul-14 12:31N 35°15' E 139°46'611.7
2017-Jul-14 12:01N 35°20' E 139°42'5 9.3
2017-Jul-14 11:31N 35°24' E 139°40'0 0.0
2017-Jul-14 10:56N 35°24' E 139°40'0 0.0
2017-Jul-14 10:29N 35°24' E 139°40'0 0.0
2017-Jul-14 09:59N 35°24' E 139°40'0 0.0
2017-Jul-14 09:29N 35°24' E 139°40'0 0.0
2017-Jul-14 08:59N 35°24' E 139°40'0 0.0
2017-Jul-14 08:29N 35°24' E 139°40'0 0.0
2017-Jul-14 08:00N 35°24' E 139°40'1 1.5
2017-Jul-14 07:28N 35°23' E 139°40'0 0.1
2017-Jul-14 06:58N 35°23' E 139°40'0 0.0
2017-Jul-14 06:28N 35°23' E 139°40'0 0.0
2017-Jul-14 05:58N 35°23' E 139°40'0 0.0
2017-Jul-14 05:31N 35°23' E 139°40'0 0.0
2017-Jul-14 05:00N 35°23' E 139°40'0 0.0
2017-Jul-14 04:31N 35°23' E 139°40'0 0.0
2017-Jul-14 04:01N 35°23' E 139°40'0 0.0
2017-Jul-14 03:31N 35°23' E 139°40'0 0.0
2017-Jul-14 03:01N 35°23' E 139°40'0 0.0
2017-Jul-14 02:31N 35°23' E 139°40'0 0.0
2017-Jul-14 02:01N 35°23' E 139°40'0 0.0
2017-Jul-14 01:31N 35°23' E 139°40'0 0.0
2017-Jul-14 01:00N 35°23' E 139°40'0 0.0
2017-Jul-14 00:30N 35°23' E 139°40'0 0.0
2017-Jul-14 00:01N 35°23' E 139°40'0 0.0
2017-Jul-13 23:30N 35°23' E 139°40'0 0.0
2017-Jul-13 23:00N 35°23' E 139°40'0 0.0
2017-Jul-13 22:30N 35°23' E 139°40'0 0.0
2017-Jul-13 22:01N 35°23' E 139°40'0 0.0
2017-Jul-13 21:30N 35°23' E 139°40'0 0.0
2017-Jul-13 21:01N 35°23' E 139°40'2 3.8
2017-Jul-13 20:30N 35°24' E 139°42'4 8.8
2017-Jul-13 20:00N 35°26' E 139°47'3 6.3
2017-Jul-13 19:30N 35°24' E 139°50'2 4.7
2017-Jul-13 19:00N 35°22' E 139°52'0 0.1
2017-Jul-13 10:30N 35°22' E 139°53'0 0.0
2017-Jul-13 06:57N 35°22' E 139°53'0 0.1
2017-Jul-13 06:25N 35°22' E 139°53'2 4.0
2017-Jul-13 06:00N 35°23' E 139°51'1 2.8
2017-Jul-13 05:30N 35°24' E 139°50'0 0.0
2017-Jul-13 04:54N 35°24' E 139°50'0 0.0
2017-Jul-13 04:30N 35°24' E 139°50'0 0.0
2017-Jul-13 04:00N 35°24' E 139°50'0 0.0
2017-Jul-13 03:22N 35°24' E 139°50'3 7.2
2017-Jul-13 03:00N 35°25' E 139°48'4 8.0
2017-Jul-13 02:28N 35°27' E 139°43'0 0.0
2017-Jul-13 01:58N 35°27' E 139°43'0 0.0
2017-Jul-13 01:28N 35°27' E 139°43'0 0.0
2017-Jul-13 00:58N 35°27' E 139°43'0 0.0
2017-Jul-13 00:28N 35°27' E 139°43'0 0.0
2017-Jul-12 23:58N 35°27' E 139°43'0 0.1
2017-Jul-12 23:29N 35°27' E 139°43'3 7.0
2017-Jul-12 23:00N 35°23' E 139°43'611.7
2017-Jul-12 22:30N 35°18' E 139°45'611.3
2017-Jul-12 22:00N 35°12' E 139°47'612.5
2017-Jul-12 21:30N 35°06' E 139°45'612.4
2017-Jul-12 21:00N 34°60' E 139°43'  

Dump ship's entire track history